Massanutten, Virginia
Current Conditions -  °F | °C
As of 10:35 AM on Saturday 22 Nov 2014 (Local Time) from KSHD Reporting Station
Clear Clear  
Wind Chill: 41°   Ceiling: Unl
Heat Index: 45°   Visibility: 10mi
Dew Point: 11°   Wind: 9mph
Humidity: 25%   Direction: 200°SSW
Pressure: 30.4"   Gusts: NA
Location:  38.3726°N, 78.7456°W
Report Text: KSHD 221535Z AUTO 20008KT 10SM CLR 07/M12 A3040 RMK AO2 T00741116
Loading
Personal Weather Stations






























Interactive Weather Map New forecast layout! Learn more

10-Day Weather Forecast

Advertisements
Track Severe Weather on mobile